首页
METAR-TAF:

METAR-TAF

机场 :

毕尔巴鄂, 西班牙

纬度: 43-18N, 经度: 002-56W, 海拔: 42米

当前天气观测

该预报发布于23分钟前的18:30 UTC
风速6节,风向,在东南之间变化
温度 8°C
湿度 87%
气压 1013 hPa
能见度10公里或以上
1500米以下无云,无积雨云

METAR: LEBB 191830Z 10006KT 080V140 CAVOK 08/06 Q1013 NOSIG

时间: 19:53 (18:53 UTC)

预报

该预报发布于1小时和53分钟前的17:00 UTC
预报有效从19日的 18点(UTC)到 20日的 18点(UTC)
风速5节,风向东转东南
能见度10公里或以上
少量云层高于4000英尺
短暂存在
从 20日的 01点(UTC)到 20日的 18点(UTC)
风速11节,风向
几率 40% :
短暂存在
从 20日的 10点(UTC)到 20日的 18点(UTC)
风速15节,风向,有时为25节阵风

TAF: LEBB 191700Z 1918/2018 12005KT 9999 FEW040 TX15/2015Z TN07/2006Z TEMPO 2001/2018 18011KT PROB40 TEMPO 2010/2018 19015G25KT

超过4000个机场的气象观测和天气预报(METAR&TAF报告)。

可查询的气象台以黄色和红色小点在地图上表示。

将鼠标移到小点上方,可查看气象台名称。

然后点击查看天气观测和预报。

如需切换地图:点击带黑十字的绿色按钮放大地图;点击带横线的绿色按钮缩小地图;或者点击绿色箭头查看邻近地区的地图。


METAR-TAF: